Fort Washington, MD

9:21 PM EST on February 01, 2015 (GMT -0500)
NonFedAWOS POTOMAC MD US SUPERAWOS | Change Station
CLOSE
Current Station
Personal Weather Station
Location: Fort Washington, MD
Elevation: 115 ft
Nearby Weather Stations

Elev 115 ft 38.75 °N, 76.96 °W | Updated 46 minutes ago

Overcast
Overcast
37 °F
Feels Like 37 °F
N
0
Wind Variable Wind from North
Gusts 0.0 mph

Today
High -- | Low -- °F
--% Chance of Precip.
Yesterday
High -- | Low -- °F
Precip. -- in
7:14 AM 5:29 PM
Waxing Gibbous, 97% visible
Pressure 29.96 in
Visibility 10.0 miles
Clouds Few 2900 ft
Scattered Clouds 6000 ft
Windchill 37 °F
Dew Point 21 °F
Humidity 52%
Rainfall -999.00 in
Snow Depth Not available.
UV 0 out of 12
Pollen 1.70 out of 12
Air Quality Not available.
Flu Activity Not available.
SPECI KADW 020205Z AUTO 14006KT 10SM UP FEW029 SCT060 03/M04 A2996 RMK AO2

More Conditions Fewer Conditions

Pressure 29.96 in
Visibility 10.0 miles
Clouds Few 2900 ft
Scattered Clouds 6000 ft
Windchill 37 °F
Dew Point 21 °F
Humidity 52%
Rainfall -999.00 in
Snow Depth Not available.
UV 0 out of 12
Pollen 1.70 out of 12
Air Quality Not available.
Flu Activity Not available.
SPECI KADW 020205Z AUTO 14006KT 10SM UP FEW029 SCT060 03/M04 A2996 RMK AO2

More Conditions Fewer Conditions

10-Day Weather Forecast

Almanac

Astronomy

Feb. 01, 2015 Rise Set
Actual Time
Civil Twilight
Nautical Twilight
Astronomical Twilight
Moon
Length of Visible Light
Length of Day
Tomorrow will be .
, % of the Moon is Illuminated

Today's Extremes

State Highs State Lows

Community

WunderPhotos

Upload Photos

1,792,655 photos uploaded!

WunderBlogs® & News

Nearby

Air Quality

  Air Quality AQ Index Pollutant
Not available.

Snow Depth

Station Depth Elevation

Earthquake Activity

City Distance Mag. Time & Date
Minimum magnitude displayed is 2.5.

Coastal Water Temperatures

Place Temperature

Nearby Weather Stations